Time;durP1;ratioP1;P1;durP2;ratioP2;P2;SDS_P1;SDS_P2;PMS_P1;PMS_P2;Temp;Humidity;BMP_temperature;BMP_pressure;BME280_temperature;BME280_humidity;BME280_pressure;Samples;Min_cycle;Max_cycle;Signal;HPM_P1;HPM_P2
2022/11/07 04:38:43;;;;;;;3.33;1.80;;;;;;;11.67;73.11;99818.81;1088770;39;21086;-83
2022/11/07 04:40:06;;;;;;;4.20;1.92;;;;;;;11.51;73.99;99816.88;1087897;47;20031;-86
2022/11/07 04:41:40;;;;;;;3.88;1.70;;;;;;;11.47;74.06;99823.53;1087754;54;20060;-86
2022/11/07 04:44:49;;;;;;;;;;;;;;;;;;;;;
2022/11/07 04:46:18;;;;;;;5.10;1.52;;;;;;;11.33;75.06;99822.25;1087738;54;20026;-82
2022/11/07 04:48:16;;;;;;;;;;;;;;;;;;;;;
2022/11/07 04:51:50;;;;;;;3.45;1.50;;;;;;;11.30;75.35;99833.28;1087630;54;20033;-86
2022/11/07 04:57:21;;;;;;;;;;;;;;;;;;;;;
2022/11/07 05:04:26;;;;;;;2.95;1.27;;;;;;;11.48;74.43;99824.38;1086968;54;20037;-83
2022/11/07 05:06:02;;;;;;;3.28;1.40;;;;;;;11.49;74.52;99831.41;1090650;39;20422;-84
2022/11/07 05:33:13;;;;;;;;;;;;;;;;;;;;;
2022/11/07 05:48:56;;;;;;;;;;;;;;;;;;;;;
2022/11/07 05:56:15;;;;;;;7.15;4.75;;;;;;;11.14;76.91;99823.25;1086982;54;20031;-83
2022/11/07 05:57:24;;;;;;;10.05;5.63;;;;;;;11.05;77.41;99829.53;1087245;54;20053;-85
2022/11/07 05:59:32;;;;;;;6.93;5.63;;;;;;;11.01;77.74;99829.00;1087465;54;20030;-82
2022/11/07 06:00:50;;;;;;;5.63;3.58;;;;;;;11.07;77.40;99825.72;1087173;54;20062;-82
2022/11/07 06:02:47;;;;;;;5.88;2.90;;;;;;;11.09;77.36;99830.94;1087377;54;20041;-84
2022/11/07 06:04:42;;;;;;;;;;;;;;;;;;;;;
2022/11/07 06:08:40;;;;;;;;;;;;;;;;;;;;;
2022/11/07 06:39:28;;;;;;;4.25;2.25;;;;;;;11.24;76.41;99869.50;1088679;54;20117;-82
2022/11/07 06:44:02;;;;;;;;;;;;;;;;;;;;;
2022/11/07 07:29:41;;;;;;;8.35;2.80;;;;;;;11.16;77.06;99906.03;1089192;54;20352;-79
2022/11/07 07:31:14;;;;;;;;;;;;;;;;;;;;;
2022/11/07 07:32:46;;;;;;;5.97;3.40;;;;;;;11.20;77.09;99904.75;1089238;54;20041;-82
2022/11/07 07:36:11;;;;;;;6.32;4.13;;;;;;;11.39;76.35;99906.41;1088575;54;20323;-80
2022/11/07 07:37:19;;;;;;;7.95;3.92;;;;;;;11.42;76.29;99899.94;1089052;54;20053;-81
2022/11/07 07:38:23;;;;;;;6.95;3.90;;;;;;;11.45;76.33;99905.81;1089026;54;20034;-81
2022/11/07 07:39:40;;;;;;;7.95;3.80;;;;;;;11.50;76.15;99905.38;1090277;46;20104;-78
2022/11/07 07:42:42;;;;;;;8.27;4.20;;;;;;;11.59;75.94;99901.75;1089490;54;20026;-84
2022/11/07 07:44:07;;;;;;;6.68;3.15;;;;;;;11.75;75.39;99905.56;1089424;54;20026;-82
2022/11/07 09:06:39;;;;;;;5.10;2.37;;;;;;;13.49;69.04;99921.41;71729;55;70586;-80
2022/11/07 09:17:16;;;;;;;8.18;2.80;;;;;;;13.32;70.33;99922.38;1087272;54;20111;-81
2022/11/07 09:19:53;;;;;;;8.82;3.53;;;;;;;13.43;69.95;99937.34;1087615;39;20717;-81
2022/11/07 09:22:36;;;;;;;5.38;2.78;;;;;;;13.71;69.09;99919.91;1087147;54;20042;-79
2022/11/07 09:23:41;;;;;;;8.07;2.95;;;;;;;13.53;69.46;99924.59;1087340;54;20073;-79
2022/11/07 09:30:10;;;;;;;7.05;3.28;;;;;;;14.02;67.61;99921.06;1085847;54;20034;-79
2022/11/07 09:31:15;;;;;;;7.38;3.35;;;;;;;14.11;67.76;99924.56;1086181;54;20034;-80
2022/11/07 09:34:40;;;;;;;7.10;2.00;;;;;;;13.89;67.27;99925.09;1087301;54;20041;-82
2022/11/07 09:36:00;;;;;;;3.95;1.67;;;;;;;14.15;67.03;99926.75;1087334;46;20057;-81
2022/11/07 09:37:05;;;;;;;8.20;2.40;;;;;;;14.19;66.79;99924.56;1087118;54;20745;-79
2022/11/07 09:38:13;;;;;;;6.07;1.70;;;;;;;14.16;66.49;99922.19;1086757;54;20039;-79
2022/11/07 09:39:15;;;;;;;6.05;1.40;;;;;;;14.12;66.77;99926.25;1086533;54;20069;-77
2022/11/07 09:40:27;;;;;;;4.75;2.00;;;;;;;14.14;66.80;99927.75;1086791;54;20034;-77
2022/11/07 09:41:44;;;;;;;4.13;1.65;;;;;;;14.27;66.37;99920.97;1087280;54;20014;-78
2022/11/07 09:42:56;;;;;;;5.45;2.03;;;;;;;14.32;66.58;99926.72;1086638;54;20098;-78
2022/11/07 09:44:19;;;;;;;6.65;1.77;;;;;;;14.55;65.48;99931.34;1086674;54;20039;-78
2022/11/07 10:38:44;;;;;;;7.15;2.17;;;;;;;14.98;63.20;99907.63;1087083;54;20009;-80
2022/11/07 10:39:49;;;;;;;4.07;1.58;;;;;;;15.05;62.77;99905.91;1089756;39;20710;-79
2022/11/07 10:40:52;;;;;;;6.72;1.90;;;;;;;15.03;63.11;99907.91;1086928;54;20038;-79
2022/11/07 10:47:23;;;;;;;5.90;1.85;;;;;;;15.20;61.83;99897.06;1087481;54;20027;-82
2022/11/07 10:48:28;;;;;;;5.00;1.52;;;;;;;15.29;61.62;99896.81;1089662;39;20577;-82
2022/11/07 10:49:36;;;;;;;5.03;1.40;;;;;;;15.33;61.08;99891.91;1087534;54;20038;-82
2022/11/07 14:09:19;;;;;;;5.22;1.35;;;;;;;16.37;55.15;99836.53;1087005;54;20017;-80
2022/11/07 14:10:30;;;;;;;4.88;1.27;;;;;;;16.47;55.28;99844.31;1087375;54;20040;-80
2022/11/07 14:11:34;;;;;;;3.47;1.25;;;;;;;16.60;55.28;99839.09;1088349;46;20057;-80
2022/11/07 14:12:40;;;;;;;4.63;1.02;;;;;;;16.69;55.08;99835.25;1087326;54;20038;-81
2022/11/07 14:13:45;;;;;;;4.78;1.00;;;;;;;16.75;55.05;99841.75;1087302;54;20057;-80
2022/11/07 14:14:48;;;;;;;3.63;1.20;;;;;;;16.65;55.17;99839.34;1087342;54;20064;-82
2022/11/07 14:15:55;;;;;;;5.18;1.92;;;;;;;16.77;54.91;99833.47;1091909;39;20880;-80
2022/11/07 14:17:02;;;;;;;5.40;1.52;;;;;;;16.83;54.78;99836.25;1088792;39;20625;-81
2022/11/07 14:18:05;;;;;;;3.88;1.20;;;;;;;16.78;55.19;99845.94;1087786;46;20057;-79
2022/11/07 14:19:16;;;;;;;3.72;1.27;;;;;;;16.88;54.77;99845.59;1087308;54;20033;-80
2022/11/07 14:20:19;;;;;;;3.80;1.10;;;;;;;16.90;55.21;99844.41;1087396;54;20188;-79
2022/11/07 14:21:27;;;;;;;3.15;1.00;;;;;;;16.67;55.38;99852.66;1088890;46;20061;-79
2022/11/07 14:22:31;;;;;;;3.53;1.13;;;;;;;16.59;55.26;99852.75;1087303;54;20045;-81
2022/11/07 14:23:35;;;;;;;4.53;1.20;;;;;;;16.73;55.16;99856.44;1087361;54;20787;-81
2022/11/07 14:24:39;;;;;;;5.97;1.90;;;;;;;16.77;55.07;99849.66;1087286;54;20060;-82
2022/11/07 14:25:41;;;;;;;5.57;1.80;;;;;;;16.76;55.34;99850.69;1087439;54;20041;-81
2022/11/07 14:26:45;;;;;;;6.35;1.80;;;;;;;16.55;55.78;99851.47;1087324;54;20026;-81
2022/11/07 14:27:49;;;;;;;5.22;1.75;;;;;;;16.65;55.40;99854.72;1087287;54;20073;-81
2022/11/07 14:28:55;;;;;;;4.60;1.33;;;;;;;16.70;55.30;99849.56;1087436;54;20106;-82
2022/11/07 14:30:01;;;;;;;4.38;1.15;;;;;;;16.76;55.29;99858.78;1087486;47;20061;-81
2022/11/07 14:31:07;;;;;;;3.20;1.10;;;;;;;16.76;55.39;99856.06;1087333;54;20035;-81
2022/11/07 14:32:19;;;;;;;5.55;1.45;;;;;;;16.45;55.48;99855.31;1087248;54;20044;-80
2022/11/07 14:33:22;;;;;;;5.65;1.60;;;;;;;16.41;56.04;99855.88;1087357;54;20034;-79
2022/11/07 14:34:26;;;;;;;4.68;1.27;;;;;;;16.54;55.74;99861.41;1086435;54;20038;-85
2022/11/07 14:35:34;;;;;;;4.63;1.08;;;;;;;16.61;55.41;99856.97;1086216;54;20046;-82
2022/11/07 14:36:38;;;;;;;5.15;1.23;;;;;;;16.23;56.15;99859.78;1086033;54;20072;-85
2022/11/07 14:37:40;;;;;;;3.90;1.50;;;;;;;16.34;56.03;99851.19;1086111;54;20069;-84
2022/11/07 14:38:49;;;;;;;6.88;1.40;;;;;;;16.25;55.94;99852.31;1087036;54;20034;-85
2022/11/07 14:39:51;;;;;;;5.03;1.52;;;;;;;16.29;56.28;99859.03;1088277;39;20729;-81
2022/11/07 14:40:57;;;;;;;3.83;1.30;;;;;;;16.40;55.69;99849.63;1087358;54;20014;-82
2022/11/07 14:42:04;;;;;;;4.40;1.38;;;;;;;16.43;55.63;99854.66;1087299;54;20061;-81
2022/11/07 14:43:06;;;;;;;4.70;1.40;;;;;;;16.36;56.06;99848.34;1087339;54;21449;-84
2022/11/07 14:44:17;;;;;;;4.03;1.20;;;;;;;16.45;55.56;99854.44;1088077;46;20030;-84
2022/11/07 14:45:21;;;;;;;3.88;1.10;;;;;;;16.51;55.87;99851.84;1086985;54;20050;-82
2022/11/07 14:46:26;;;;;;;6.03;2.50;;;;;;;16.45;55.72;99862.53;1087291;54;20070;-83
2022/11/07 14:47:32;;;;;;;6.60;2.38;;;;;;;16.34;56.18;99851.19;1087247;54;20046;-82
2022/11/07 14:48:37;;;;;;;10.38;6.00;;;;;;;16.36;56.31;99859.13;1087332;54;20046;-81
2022/11/07 14:49:40;;;;;;;6.90;3.00;;;;;;;16.52;56.02;99850.00;1087214;54;20061;-81
2022/11/07 14:50:47;;;;;;;6.97;3.40;;;;;;;16.44;56.06;99856.31;1087305;54;20030;-82
2022/11/07 14:51:49;;;;;;;5.55;2.97;;;;;;;16.53;55.87;99860.59;1087342;54;20042;-80
2022/11/07 14:52:59;;;;;;;6.45;2.80;;;;;;;16.61;55.68;99853.41;1087251;54;20118;-80
2022/11/07 14:54:08;;;;;;;5.45;2.40;;;;;;;16.62;55.59;99847.84;1087262;54;20069;-79
2022/11/07 14:55:19;;;;;;;5.07;1.70;;;;;;;16.29;55.99;99850.94;1087362;54;20042;-80
2022/11/07 14:56:30;;;;;;;5.85;1.90;;;;;;;16.22;55.98;99850.03;1088640;46;20054;-81
2022/11/07 14:57:37;;;;;;;4.38;1.33;;;;;;;16.29;56.03;99850.94;1087504;39;20099;-81
2022/11/07 14:58:38;;;;;;;4.13;1.20;;;;;;;16.42;55.78;99852.16;1087382;54;20050;-80
2022/11/07 14:59:43;;;;;;;4.28;1.27;;;;;;;16.43;55.76;99845.72;1087551;46;20038;-83
2022/11/07 15:00:54;;;;;;;4.13;1.38;;;;;;;16.37;55.89;99848.13;1087343;54;20057;-80
2022/11/07 15:01:58;;;;;;;4.00;1.08;;;;;;;16.16;56.19;99854.28;1087039;54;20062;-79
2022/11/07 15:03:05;;;;;;;4.70;1.50;;;;;;;16.24;56.08;99856.06;1087251;54;20038;-80
2022/11/07 15:04:19;;;;;;;4.07;1.20;;;;;;;16.32;55.94;99853.28;1087275;54;20034;-80
2022/11/07 15:05:22;;;;;;;3.67;1.33;;;;;;;16.26;56.34;99850.47;1086786;54;20058;-79
2022/11/07 15:06:32;;;;;;;6.97;1.60;;;;;;;16.01;56.42;99851.59;1087211;54;20048;-81
2022/11/07 15:07:44;;;;;;;5.40;1.20;;;;;;;16.13;56.55;99840.34;1087359;54;20497;-79
2022/11/07 15:08:58;;;;;;;4.13;1.30;;;;;;;16.12;56.27;99844.06;1087205;54;20041;-80
2022/11/07 15:10:16;;;;;;;3.75;1.27;;;;;;;16.08;56.17;99848.16;1086063;54;20035;-81
2022/11/07 15:11:34;;;;;;;4.40;1.45;;;;;;;16.05;56.45;99849.34;1087387;54;20022;-83
2022/11/07 15:12:51;;;;;;;5.15;1.70;;;;;;;16.12;56.65;99847.59;1088093;47;20090;-83
2022/11/07 15:13:59;;;;;;;4.50;1.48;;;;;;;16.19;56.44;99847.69;1087978;47;20023;-83
2022/11/07 15:15:05;;;;;;;6.32;1.77;;;;;;;16.26;56.20;99851.31;1088362;46;20035;-86
2022/11/07 15:16:17;;;;;;;5.30;1.70;;;;;;;16.24;56.39;99844.44;1086019;54;20141;-83
2022/11/07 15:17:24;;;;;;;6.60;1.50;;;;;;;16.31;56.27;99851.59;1087097;46;20061;-81
2022/11/07 15:18:32;;;;;;;3.75;1.40;;;;;;;16.37;56.21;99856.22;1086488;54;20146;-84
2022/11/07 15:19:34;;;;;;;3.65;1.40;;;;;;;16.39;56.13;99853.34;1087683;54;20034;-84
2022/11/07 15:20:43;;;;;;;4.70;1.30;;;;;;;16.35;56.52;99847.47;1087479;54;20030;-84
2022/11/07 15:21:52;;;;;;;5.70;2.20;;;;;;;16.25;56.24;99852.31;1087430;46;20026;-83
2022/11/07 15:22:56;;;;;;;4.65;1.45;;;;;;;16.20;56.66;99855.56;1085977;54;20038;-81
2022/11/07 15:24:02;;;;;;;5.90;2.47;;;;;;;16.26;56.82;99859.41;1086255;54;20058;-80
2022/11/07 15:25:23;;;;;;;6.53;1.95;;;;;;;16.13;57.00;99849.25;1086134;54;20035;-81
2022/11/07 15:26:33;;;;;;;6.47;1.88;;;;;;;16.12;56.84;99844.06;1086166;54;20054;-85
2022/11/07 15:27:39;;;;;;;3.90;1.70;;;;;;;16.15;56.90;99851.78;1086660;54;20138;-80
2022/11/07 15:28:48;;;;;;;5.80;1.80;;;;;;;16.18;56.97;99849.56;1087699;39;20909;-80
2022/11/07 15:29:52;;;;;;;7.03;2.35;;;;;;;16.18;57.27;99851.41;1087208;54;20026;-81
2022/11/07 15:30:58;;;;;;;5.63;2.03;;;;;;;16.25;57.03;99846.94;1087413;47;20034;-80
2022/11/07 15:32:05;;;;;;;5.95;2.22;;;;;;;16.25;56.87;99846.94;1087223;54;20069;-81
2022/11/07 15:33:12;;;;;;;4.93;2.10;;;;;;;16.31;56.64;99851.59;1087146;54;20042;-80
2022/11/07 15:34:18;;;;;;;4.15;1.60;;;;;;;16.35;57.01;99852.88;1087160;54;20808;-80
2022/11/07 15:35:23;;;;;;;4.85;2.03;;;;;;;16.35;57.11;99844.78;1088224;46;20030;-81
2022/11/07 15:36:27;;;;;;;5.80;2.45;;;;;;;16.34;56.85;99847.69;1087294;54;20035;-81
2022/11/07 15:37:29;;;;;;;5.35;1.90;;;;;;;16.30;56.89;99847.22;1087208;54;20072;-80
2022/11/07 15:38:33;;;;;;;4.57;1.63;;;;;;;16.37;56.97;99845.44;1088398;46;20030;-80
2022/11/07 15:39:37;;;;;;;4.78;1.83;;;;;;;16.35;57.26;99850.19;1087297;54;20034;-79
2022/11/07 15:40:38;;;;;;;4.82;1.75;;;;;;;16.39;57.05;99845.25;1087439;39;21292;-81
2022/11/07 15:41:42;;;;;;;4.65;1.70;;;;;;;16.38;57.31;99852.50;1087834;46;20041;-85
2022/11/07 15:42:44;;;;;;;5.03;1.73;;;;;;;16.43;57.36;99854.66;1086837;54;20054;-83
2022/11/07 15:43:48;;;;;;;5.15;1.83;;;;;;;16.43;57.33;99857.34;1087001;54;20045;-84
2022/11/07 15:44:49;;;;;;;4.25;2.13;;;;;;;16.35;57.18;99849.34;1087494;54;20073;-85
2022/11/07 15:45:55;;;;;;;5.18;2.22;;;;;;;16.35;57.18;99857.44;1087742;47;20065;-85
2022/11/07 15:46:56;;;;;;;5.40;1.85;;;;;;;16.37;57.36;99856.22;1087579;54;20631;-88
2022/11/07 15:48:01;;;;;;;7.32;2.10;;;;;;;16.34;57.48;99862.00;1087759;46;20037;-80
2022/11/07 15:49:06;;;;;;;6.57;2.10;;;;;;;16.27;57.25;99863.75;1088990;46;20015;-81
2022/11/07 15:50:16;;;;;;;5.05;2.30;;;;;;;16.19;57.45;99855.78;1087738;47;20022;-80
2022/11/07 15:51:20;;;;;;;8.18;1.95;;;;;;;16.15;57.62;99857.19;1087712;54;20034;-80
2022/11/07 15:52:24;;;;;;;7.13;2.63;;;;;;;16.17;57.54;99853.28;1089164;47;20046;-80
2022/11/07 15:53:30;;;;;;;6.90;2.22;;;;;;;16.21;57.81;99857.25;1088044;47;20053;-82
2022/11/07 15:54:32;;;;;;;5.32;2.47;;;;;;;16.18;57.86;99856.78;1088598;47;20054;-85
2022/11/07 15:55:36;;;;;;;5.18;2.30;;;;;;;16.16;57.81;99857.00;1086270;54;20034;-83
2022/11/07 15:56:41;;;;;;;7.20;2.22;;;;;;;16.17;57.71;99855.13;1086406;54;20018;-84
2022/11/07 15:57:44;;;;;;;5.68;2.10;;;;;;;16.15;57.50;99854.50;1087025;54;20046;-84
2022/11/07 15:58:49;;;;;;;7.22;2.45;;;;;;;16.19;57.43;99850.38;1087515;54;20038;-84
2022/11/07 15:59:50;;;;;;;5.13;2.08;;;;;;;16.10;57.65;99848.81;1087593;54;20057;-82
2022/11/07 16:00:55;;;;;;;7.25;2.20;;;;;;;16.13;58.01;99851.13;1089869;47;20048;-83
2022/11/07 16:01:56;;;;;;;5.80;2.55;;;;;;;16.14;57.84;99850.94;1087165;54;20065;-86
2022/11/07 16:03:00;;;;;;;6.75;2.30;;;;;;;16.18;57.71;99854.09;1087368;54;20027;-84
2022/11/07 16:04:05;;;;;;;6.22;2.70;;;;;;;16.18;57.97;99856.78;1087581;54;20081;-83
2022/11/07 16:05:07;;;;;;;7.28;2.72;;;;;;;16.17;57.78;99853.28;1089036;47;20043;-81
2022/11/07 16:06:21;;;;;;;5.85;2.22;;;;;;;16.17;57.84;99849.72;1087785;54;20034;-84
2022/11/07 16:07:25;;;;;;;5.88;2.63;;;;;;;16.16;57.89;99854.28;1087734;54;20038;-80
2022/11/07 16:08:28;;;;;;;5.60;2.90;;;;;;;16.13;58.24;99846.56;1087688;54;20034;-81
2022/11/07 16:09:34;;;;;;;7.00;2.58;;;;;;;16.16;58.07;99853.44;1087775;47;20042;-79
2022/11/07 16:10:39;;;;;;;6.93;2.63;;;;;;;16.14;58.00;99853.63;1087473;54;20030;-81
2022/11/07 16:11:40;;;;;;;5.13;2.47;;;;;;;16.17;58.17;99849.72;1092803;31;20698;-85
2022/11/07 16:12:44;;;;;;;5.07;2.08;;;;;;;16.18;58.16;99863.03;1087087;54;20034;-80
2022/11/07 16:13:49;;;;;;;4.88;2.00;;;;;;;16.18;57.92;99854.09;1088511;39;20901;-80
2022/11/07 16:14:54;;;;;;;5.85;2.30;;;;;;;16.20;58.15;99854.75;1087608;54;20046;-79
2022/11/07 16:16:01;;;;;;;3.95;1.80;;;;;;;16.20;58.02;99858.28;1087938;46;20026;-81
2022/11/07 16:17:05;;;;;;;4.63;1.88;;;;;;;16.18;58.41;99856.78;1088333;46;20061;-83
2022/11/07 16:18:13;;;;;;;5.03;2.30;;;;;;;16.17;58.46;99852.41;1087094;54;20069;-84
2022/11/07 16:19:21;;;;;;;4.20;1.90;;;;;;;16.18;58.55;99851.41;1086942;54;20037;-81
2022/11/07 16:20:25;;;;;;;4.57;1.83;;;;;;;16.15;58.62;99852.63;1088072;46;20137;-84
2022/11/07 16:21:29;;;;;;;5.00;1.92;;;;;;;16.11;58.57;99851.31;1087692;54;20792;-80
2022/11/07 16:22:34;;;;;;;4.82;2.00;;;;;;;16.14;58.71;99856.34;1087547;54;20034;-81
2022/11/07 16:23:38;;;;;;;5.15;2.10;;;;;;;16.16;58.74;99854.28;1087637;54;20038;-81
2022/11/07 16:24:43;;;;;;;4.60;1.83;;;;;;;16.18;58.57;99856.78;1087641;54;20069;-82
2022/11/07 16:25:49;;;;;;;5.25;2.25;;;;;;;16.15;58.86;99857.19;1088042;39;21030;-81
2022/11/07 16:26:54;;;;;;;5.35;2.15;;;;;;;16.11;59.01;99861.25;1087636;54;20451;-82
2022/11/07 16:27:58;;;;;;;6.22;2.45;;;;;;;16.12;58.81;99863.75;1086516;54;20050;-84
2022/11/07 16:29:02;;;;;;;4.63;2.20;;;;;;;16.13;59.14;99859.22;1086485;54;20034;-84
2022/11/07 16:30:12;;;;;;;4.57;2.22;;;;;;;16.10;59.02;99864.97;1086593;54;20103;-83
2022/11/07 16:31:16;;;;;;;6.60;2.42;;;;;;;16.06;59.23;99854.56;1086214;54;20599;-83
2022/11/07 16:32:20;;;;;;;5.00;2.50;;;;;;;16.06;59.17;99859.94;1086325;46;20034;-81
2022/11/07 16:33:23;;;;;;;7.65;2.75;;;;;;;15.95;58.90;99849.66;1087039;46;20030;-80
2022/11/07 16:34:27;;;;;;;5.80;2.50;;;;;;;15.95;59.30;99848.78;1087278;54;20037;-81
2022/11/07 16:35:29;;;;;;;5.78;2.60;;;;;;;15.97;59.14;99860.22;1087516;54;20034;-79
2022/11/07 16:36:37;;;;;;;5.82;2.97;;;;;;;15.99;59.36;99852.81;1087639;39;20641;-80
2022/11/07 16:37:39;;;;;;;6.65;2.50;;;;;;;15.94;59.17;99853.34;1087702;46;20026;-82
2022/11/07 16:38:43;;;;;;;6.47;2.63;;;;;;;15.95;59.54;99857.72;1087512;54;20106;-79
2022/11/07 16:39:47;;;;;;;7.18;3.05;;;;;;;15.94;59.50;99860.59;1087492;54;20816;-82
2022/11/07 16:40:49;;;;;;;9.27;3.17;;;;;;;15.89;59.15;99861.16;1087499;54;20038;-79
2022/11/07 16:41:53;;;;;;;6.25;3.13;;;;;;;15.90;59.13;99860.13;1087443;54;20065;-80
2022/11/07 16:42:54;;;;;;;5.32;2.30;;;;;;;15.92;59.27;99862.66;1087522;54;20061;-83
2022/11/07 16:43:58;;;;;;;5.80;2.78;;;;;;;15.87;59.33;99855.94;1087455;54;20054;-83
2022/11/07 16:45:01;;;;;;;5.53;2.50;;;;;;;15.87;59.44;99860.53;1087488;54;20034;-82
2022/11/07 16:46:06;;;;;;;5.72;2.60;;;;;;;15.85;59.47;99865.25;1090475;39;20597;-81
2022/11/07 16:47:13;;;;;;;5.07;2.20;;;;;;;15.85;59.34;99862.56;1087569;54;20046;-81
2022/11/07 16:48:18;;;;;;;6.05;2.72;;;;;;;15.84;59.37;99859.00;1087206;54;20018;-81
2022/11/07 16:49:28;;;;;;;5.35;2.85;;;;;;;15.86;59.04;99861.53;1086418;54;20034;-83
2022/11/07 16:50:29;;;;;;;5.93;2.63;;;;;;;15.85;59.38;99854.47;1086271;54;20047;-84
2022/11/07 16:51:36;;;;;;;6.40;2.72;;;;;;;15.86;59.05;99859.66;1086100;54;20591;-81
2022/11/07 16:52:37;;;;;;;6.95;3.17;;;;;;;15.84;59.50;99850.09;1086444;54;20588;-84
2022/11/07 16:53:41;;;;;;;5.70;2.42;;;;;;;15.86;59.36;99858.84;1086186;54;20043;-83
2022/11/07 16:54:46;;;;;;;5.63;2.90;;;;;;;15.80;59.37;99859.53;1086533;46;20046;-81
2022/11/07 16:56:55;;;;;;;8.15;3.38;;;;;;;15.77;59.76;99860.72;1087963;46;20049;-81
2022/11/07 16:57:56;;;;;;;6.15;3.15;;;;;;;15.77;59.58;99854.53;1087784;54;20038;-82
2022/11/07 16:59:01;;;;;;;6.50;2.70;;;;;;;15.75;59.61;99863.63;1087766;54;20026;-81
2022/11/07 17:00:06;;;;;;;5.40;2.78;;;;;;;15.77;59.46;99855.34;1087833;54;20053;-84
2022/11/07 17:01:07;;;;;;;6.13;2.63;;;;;;;15.79;59.52;99860.53;1087960;54;20076;-81
2022/11/07 17:02:22;;;;;;;7.30;3.00;;;;;;;15.75;59.32;99860.94;1087826;54;20027;-82
2022/11/07 17:03:25;;;;;;;6.72;3.17;;;;;;;15.74;59.42;99856.56;1087793;54;20042;-83
2022/11/07 17:04:29;;;;;;;7.35;3.10;;;;;;;15.73;59.68;99859.41;1087711;54;20078;-82
2022/11/07 17:05:33;;;;;;;5.55;2.90;;;;;;;15.70;59.65;99860.63;1087818;54;20030;-83
2022/11/07 17:06:45;;;;;;;6.20;3.08;;;;;;;15.66;59.62;99863.88;1087781;54;20086;-82
2022/11/07 17:07:50;;;;;;;5.47;3.08;;;;;;;15.64;59.53;99864.06;1087789;54;20039;-83
2022/11/07 17:08:54;;;;;;;6.03;2.55;;;;;;;15.63;59.76;99859.69;1087825;54;20046;-83
2022/11/07 17:09:58;;;;;;;8.25;3.80;;;;;;;15.62;59.99;99849.09;1087781;54;20037;-82
2022/11/07 17:11:02;;;;;;;5.70;2.70;;;;;;;15.63;59.91;99853.47;1087738;54;20657;-82
2022/11/07 17:12:13;;;;;;;5.07;2.80;;;;;;;15.61;59.60;99859.03;1087749;54;20480;-81
2022/11/07 17:13:18;;;;;;;7.97;3.05;;;;;;;15.62;59.72;99859.88;1087799;54;20038;-81
2022/11/07 17:14:22;;;;;;;5.57;2.90;;;;;;;15.56;59.92;99853.34;1087912;54;20057;-83
2022/11/07 17:15:26;;;;;;;5.75;2.78;;;;;;;15.59;59.54;99855.66;1087851;54;20031;-81
2022/11/07 17:16:33;;;;;;;5.95;3.10;;;;;;;15.52;59.68;99860.97;1089535;46;20038;-81
2022/11/07 17:17:37;;;;;;;6.05;3.33;;;;;;;15.51;59.55;99861.13;1088049;54;20037;-81
2022/11/07 17:18:39;;;;;;;6.93;3.38;;;;;;;15.47;59.81;99859.84;1087891;54;20697;-82
2022/11/07 17:19:43;;;;;;;6.05;3.50;;;;;;;15.51;59.42;99855.75;1087915;54;20041;-82
2022/11/07 17:20:46;;;;;;;6.13;3.15;;;;;;;15.49;59.37;99860.50;1088504;46;20062;-82
2022/11/07 17:21:53;;;;;;;9.32;3.75;;;;;;;15.46;59.51;99863.53;1088006;54;20014;-81
2022/11/07 17:22:57;;;;;;;6.82;3.50;;;;;;;15.44;59.79;99856.47;1087936;54;20061;-81
2022/11/07 17:24:03;;;;;;;5.97;3.53;;;;;;;15.42;59.49;99855.81;1088011;54;20674;-81
2022/11/07 17:25:05;;;;;;;6.15;2.83;;;;;;;15.44;59.50;99858.34;1087913;54;20057;-82
2022/11/07 17:26:19;;;;;;;8.50;2.88;;;;;;;15.46;59.72;99858.16;1087985;54;20057;-83
2022/11/07 17:27:25;;;;;;;7.90;3.75;;;;;;;15.41;59.65;99864.91;1102997;31;20642;-82
2022/11/07 17:28:26;;;;;;;6.60;3.22;;;;;;;15.42;59.87;99855.81;1087962;54;20057;-81
2022/11/07 17:29:33;;;;;;;5.88;3.00;;;;;;;15.42;59.58;99863.91;1088389;46;20018;-81
2022/11/07 17:30:37;;;;;;;8.02;3.42;;;;;;;15.40;59.55;99862.41;1087906;54;20058;-81
2022/11/07 17:31:43;;;;;;;7.53;3.20;;;;;;;15.44;59.68;99866.44;1087957;54;20046;-81
2022/11/07 17:32:45;;;;;;;7.00;3.58;;;;;;;15.43;59.43;99860.19;1087893;54;20034;-80
2022/11/07 17:33:49;;;;;;;5.55;2.95;;;;;;;15.43;59.69;99870.13;1087954;54;20073;-82
2022/11/07 17:34:53;;;;;;;9.00;3.80;;;;;;;15.31;60.04;99869.69;1087795;54;20313;-80
2022/11/07 17:35:55;;;;;;;7.28;3.90;;;;;;;15.20;60.11;99865.59;1087860;54;20892;-82
2022/11/07 17:37:02;;;;;;;6.93;3.67;;;;;;;15.17;60.42;99863.25;1087905;54;21014;-81
2022/11/07 17:38:06;;;;;;;6.95;3.90;;;;;;;15.20;60.39;99867.47;1088010;54;20788;-83
2022/11/07 17:39:11;;;;;;;8.02;3.50;;;;;;;15.19;60.47;99869.28;1088250;54;20057;-82
2022/11/07 17:40:20;;;;;;;8.45;3.42;;;;;;;15.15;60.36;99862.59;1088142;54;20106;-84
2022/11/07 17:41:27;;;;;;;7.65;3.50;;;;;;;15.06;60.73;99867.19;1088243;54;20027;-83
2022/11/07 17:42:31;;;;;;;6.65;3.55;;;;;;;14.97;60.86;99866.41;1088190;54;20037;-82
2022/11/07 17:43:32;;;;;;;9.00;4.32;;;;;;;14.99;60.98;99871.63;1088306;54;20015;-84
2022/11/07 17:44:38;;;;;;;7.55;3.45;;;;;;;15.10;60.57;99865.84;1088179;54;20164;-82
2022/11/07 17:45:45;;;;;;;6.57;3.50;;;;;;;14.98;60.58;99869.94;1088212;54;20042;-83
2022/11/07 17:46:49;;;;;;;7.50;3.50;;;;;;;14.98;60.87;99868.06;1088257;54;20041;-82
2022/11/07 17:47:54;;;;;;;7.22;3.90;;;;;;;14.95;60.97;99872.97;1088330;54;20018;-83
2022/11/07 17:49:00;;;;;;;7.18;3.63;;;;;;;14.94;61.16;99869.47;1088218;54;20034;-83
2022/11/07 17:50:07;;;;;;;9.35;3.90;;;;;;;14.87;60.99;99870.34;1088126;54;20035;-85
2022/11/07 17:51:09;;;;;;;7.75;3.60;;;;;;;14.93;61.05;99869.63;1088304;54;20074;-83
2022/11/07 17:52:16;;;;;;;8.52;3.50;;;;;;;14.82;61.38;99878.94;1087979;54;20034;-83
2022/11/07 17:53:20;;;;;;;7.55;3.30;;;;;;;14.91;61.34;99879.75;1087976;54;20026;-83
2022/11/07 17:54:27;;;;;;;7.03;3.70;;;;;;;14.82;61.40;99877.13;1088035;54;20046;-82
2022/11/07 17:55:29;;;;;;;6.38;2.92;;;;;;;14.80;61.35;99878.28;1087987;54;20030;-83
2022/11/07 17:56:34;;;;;;;8.32;4.05;;;;;;;14.86;61.49;99884.81;1087864;54;20035;-84
2022/11/07 17:57:38;;;;;;;7.85;3.65;;;;;;;14.78;61.56;99875.78;1088062;54;20038;-83
2022/11/07 17:58:42;;;;;;;6.28;3.60;;;;;;;14.80;61.45;99871.06;1088106;54;20030;-84
2022/11/07 17:59:47;;;;;;;6.82;3.50;;;;;;;14.76;61.83;99883.19;1088056;54;20795;-81
2022/11/07 18:00:49;;;;;;;8.77;4.18;;;;;;;14.68;62.32;99875.16;1088160;54;20042;-82
2022/11/07 18:01:54;;;;;;;11.23;3.92;;;;;;;14.59;62.53;99876.19;1088143;54;20026;-83
2022/11/07 18:02:55;;;;;;;12.73;4.72;;;;;;;14.54;63.12;99875.88;1088050;54;20114;-83
2022/11/07 18:04:00;;;;;;;9.13;4.63;;;;;;;14.57;63.00;99875.50;1088213;54;20030;-83
2022/11/07 18:05:03;;;;;;;7.53;4.53;;;;;;;14.69;62.96;99876.84;1088184;54;20030;-83
2022/11/07 18:06:08;;;;;;;9.10;5.32;;;;;;;14.65;62.67;99873.63;1092203;39;20911;-83
2022/11/07 18:07:16;;;;;;;11.13;6.25;;;;;;;14.55;63.36;99877.56;1088159;54;20061;-83
2022/11/07 18:08:21;;;;;;;11.50;6.63;;;;;;;14.49;63.21;99879.91;1088015;54;20717;-83
2022/11/07 18:09:23;;;;;;;10.63;6.00;;;;;;;14.45;63.63;99878.56;1088112;54;20010;-85
2022/11/07 18:10:28;;;;;;;17.17;10.05;;;;;;;14.48;63.41;99878.22;1088106;54;20068;-83
2022/11/07 18:11:33;;;;;;;30.10;17.42;;;;;;;14.39;63.62;99883.84;1088634;46;20031;-83
2022/11/07 18:12:36;;;;;;;18.80;10.68;;;;;;;14.36;63.90;99874.25;1088090;54;20053;-82
2022/11/07 18:13:41;;;;;;;16.95;9.88;;;;;;;14.35;64.10;99878.78;1088080;54;20061;-82
2022/11/07 18:14:49;;;;;;;17.88;11.10;;;;;;;14.30;64.30;99880.31;1089848;46;20018;-83
2022/11/07 18:15:54;;;;;;;14.13;8.55;;;;;;;14.35;64.00;99872.59;1089313;46;20045;-83
2022/11/07 18:17:00;;;;;;;12.75;6.78;;;;;;;14.31;64.23;99882.81;1088180;54;20030;-81
2022/11/07 18:18:06;;;;;;;12.55;6.72;;;;;;;14.30;64.25;99875.81;1089832;46;20010;-83
2022/11/07 18:19:13;;;;;;;11.13;5.43;;;;;;;14.30;64.18;99874.94;1089569;39;20563;-84
2022/11/07 18:20:16;;;;;;;9.07;5.30;;;;;;;14.27;64.24;99875.28;1090532;39;20602;-83
2022/11/07 18:21:21;;;;;;;12.73;5.00;;;;;;;14.26;64.48;99873.63;1088097;54;20018;-84
2022/11/07 18:22:29;;;;;;;8.75;4.65;;;;;;;14.16;64.57;99879.19;1088048;54;20057;-83
2022/11/07 18:23:34;;;;;;;9.98;4.75;;;;;;;14.12;64.51;99873.31;1102387;39;20624;-82
2022/11/07 18:24:41;;;;;;;11.00;4.38;;;;;;;14.08;64.79;99876.53;1088079;54;20026;-83
2022/11/07 18:25:46;;;;;;;9.35;5.07;;;;;;;14.03;64.75;99879.72;1088121;54;20086;-82